You are listening to:
KLAX Tower (North) - Los Angeles, California, United States

KLAX 251053Z 02004KT 6SM BR FEW004 FEW010 11/10 A3007 RMK AO2 SLP182 T01110100

If stream doesn't start automatically press the play button
If stream stops then reload player then press play